Terminal Aerodrome Forecast
Issued by NWS Binghamton, NY

Home | Current Version | Previous Version | Text Only | Print | Product List | Glossary On
Versions: 1 2 3 4 5 6 7 8 9 10 11 12 13 14 15 16 17 18 19
000
FTUS41 KBGM 281500 AAB
TAFSYR
TAF AMD
KSYR 281506Z 2815/2912 35008KT P6SM -SHRA SCT008 OVC025
     FM290000 32008KT P6SM -SHRA OVC025
     FM290300 29008KT P6SM OVC040=

USA.gov is the U.S. government's official web portal to all federal, state and local government web resources and services.